Time;durP1;ratioP1;P1;durP2;ratioP2;P2;SDS_P1;SDS_P2;PMS_P1;PMS_P2;Temp;Humidity;BMP_temperature;BMP_pressure;BME280_temperature;BME280_humidity;BME280_pressure;Samples;Min_cycle;Max_cycle;Signal;HPM_P1;HPM_P2
2022/06/11 00:01:49;;;;;;;5.45;3.72;;;;;;;13.56;89.67;99948.41;5069048;28;20107;-56
2022/06/11 00:04:23;;;;;;;9.23;3.80;;;;;;;13.61;89.57;99945.81;5067598;28;20119;-55
2022/06/11 00:06:50;;;;;;;13.38;4.38;;;;;;;13.61;89.86;99945.00;5071075;28;20032;-55
2022/06/11 00:09:16;;;;;;;8.68;3.85;;;;;;;13.58;89.76;99952.50;5069905;28;20098;-55
2022/06/11 00:11:42;;;;;;;8.68;4.32;;;;;;;13.51;90.25;99954.53;5047384;28;20028;-55
2022/06/11 00:14:07;;;;;;;7.82;3.45;;;;;;;13.65;89.65;99951.50;5052842;28;20020;-55
2022/06/11 00:16:33;;;;;;;11.38;3.40;;;;;;;13.68;89.27;99945.63;5052312;28;20528;-55
2022/06/11 00:18:59;;;;;;;10.70;3.72;;;;;;;13.64;89.57;99939.91;5070184;28;20085;-55
2022/06/11 00:21:25;;;;;;;9.05;4.00;;;;;;;13.79;88.84;99944.72;5069988;28;20032;-55
2022/06/11 00:23:50;;;;;;;8.20;3.63;;;;;;;13.76;88.72;99942.53;5069866;28;20390;-54
2022/06/11 00:26:16;;;;;;;11.65;3.60;;;;;;;13.75;88.94;99940.88;5038297;28;20033;-55
2022/06/11 00:28:41;;;;;;;9.50;3.78;;;;;;;13.64;89.58;99944.50;5070866;28;20116;-55
2022/06/11 00:31:07;;;;;;;9.27;3.88;;;;;;;13.73;89.32;99943.84;5063649;28;20445;-55
2022/06/11 00:33:33;;;;;;;11.80;3.83;;;;;;;13.72;89.17;99936.81;5043358;28;20041;-55
2022/06/11 00:35:58;;;;;;;11.18;4.00;;;;;;;13.73;88.85;99940.34;5069841;28;20020;-55
2022/06/11 00:38:24;;;;;;;6.03;3.80;;;;;;;13.83;88.43;99948.59;5068669;28;20025;-55
2022/06/11 00:40:51;;;;;;;9.23;3.65;;;;;;;13.87;87.63;99938.09;5070755;28;20040;-55
2022/06/11 00:43:17;;;;;;;12.07;3.47;;;;;;;13.86;87.55;99947.28;5066961;28;20078;-54
2022/06/11 00:45:58;;;;;;;13.27;4.10;;;;;;;13.70;88.34;99946.19;5065439;28;20029;-55
2022/06/11 00:48:35;;;;;;;8.43;3.40;;;;;;;13.67;88.07;99944.00;5070700;28;20091;-55
2022/06/11 00:51:18;;;;;;;9.00;3.40;;;;;;;13.64;88.06;99941.81;5052259;28;20481;-55
2022/06/11 00:53:47;;;;;;;11.40;3.60;;;;;;;13.68;87.96;99942.94;5060414;28;20423;-54
2022/06/11 00:56:28;;;;;;;9.65;3.67;;;;;;;13.62;88.00;99939.34;5048324;28;20304;-56
2022/06/11 00:58:54;;;;;;;15.82;3.50;;;;;;;13.58;88.43;99930.94;5050242;28;20044;-55
2022/06/11 01:01:22;;;;;;;18.63;3.80;;;;;;;13.51;88.75;99941.06;5044948;28;20372;-55
2022/06/11 01:03:47;;;;;;;11.80;4.07;;;;;;;13.45;89.24;99928.56;5069536;28;20115;-54
2022/06/11 01:06:21;;;;;;;12.95;3.65;;;;;;;13.46;89.35;99929.41;5069566;28;20377;-54
2022/06/11 01:08:55;;;;;;;8.98;3.58;;;;;;;13.37;89.84;99920.91;5057266;28;20123;-55
2022/06/11 01:11:37;;;;;;;14.82;4.30;;;;;;;13.28;90.26;99928.56;5052362;28;20405;-54
2022/06/11 01:14:07;;;;;;;9.65;3.88;;;;;;;13.14;91.04;99936.09;5060169;28;20550;-55
2022/06/11 01:16:47;;;;;;;10.15;3.88;;;;;;;13.06;91.95;99928.41;5048286;28;20047;-55
2022/06/11 01:19:43;;;;;;;9.68;3.40;;;;;;;13.14;92.47;99928.00;5021184;28;20033;-51
2022/06/11 01:22:29;;;;;;;7.13;3.40;;;;;;;13.15;92.71;99926.97;5027270;28;20033;-55
2022/06/11 01:25:03;;;;;;;12.73;3.97;;;;;;;13.20;92.28;99926.22;5068749;28;20028;-55
2022/06/11 01:27:50;;;;;;;10.13;4.38;;;;;;;13.27;91.75;99924.22;5066392;28;20074;-55
2022/06/11 01:30:25;;;;;;;15.35;4.20;;;;;;;13.47;90.16;99918.38;5066514;28;20050;-54
2022/06/11 01:33:07;;;;;;;9.95;4.03;;;;;;;13.61;88.38;99918.06;5062689;28;20033;-55
2022/06/11 01:35:45;;;;;;;8.60;3.80;;;;;;;13.71;87.64;99912.81;5053300;28;20055;-55
2022/06/11 01:38:27;;;;;;;6.10;3.42;;;;;;;13.68;87.70;99926.75;5033843;28;20029;-55
2022/06/11 01:41:27;;;;;;;10.10;4.10;;;;;;;13.24;90.10;99934.66;5048645;28;20028;-55
2022/06/11 01:43:59;;;;;;;9.45;3.90;;;;;;;12.95;91.51;99942.72;5008163;28;20060;-55
2022/06/11 01:46:31;;;;;;;11.50;4.05;;;;;;;12.78;93.47;99936.47;5054143;28;20020;-55
2022/06/11 01:49:04;;;;;;;9.05;3.92;;;;;;;12.77;93.94;99932.16;5051201;28;20064;-54
2022/06/11 01:52:02;;;;;;;8.38;3.83;;;;;;;12.84;92.98;99930.16;5068179;28;20040;-54
2022/06/11 01:54:46;;;;;;;11.85;3.88;;;;;;;12.81;93.18;99922.56;5018685;28;20085;-56
2022/06/11 01:57:17;;;;;;;10.23;4.05;;;;;;;12.95;92.51;99921.19;5064186;28;20086;-55
2022/06/11 02:00:06;;;;;;;8.77;3.90;;;;;;;12.92;92.59;99925.19;5066124;28;20094;-55
2022/06/11 02:03:05;;;;;;;8.63;4.10;;;;;;;13.16;91.98;99922.41;5047292;28;20029;-55
2022/06/11 02:06:04;;;;;;;9.32;3.67;;;;;;;12.96;91.42;99922.84;5062610;28;20025;-55
2022/06/11 02:09:03;;;;;;;11.82;3.90;;;;;;;12.94;92.17;99923.09;5043438;28;20155;-55
2022/06/11 02:11:33;;;;;;;13.55;3.90;;;;;;;12.95;91.88;99921.19;5068681;28;20137;-55
2022/06/11 02:14:04;;;;;;;8.70;4.32;;;;;;;13.04;91.77;99917.06;5057293;28;20047;-55
2022/06/11 02:16:35;;;;;;;8.05;3.72;;;;;;;13.17;90.70;99921.34;5062449;28;20062;-56
2022/06/11 02:19:05;;;;;;;13.27;4.03;;;;;;;13.24;90.70;99926.56;5043277;28;20418;-55
2022/06/11 02:21:33;;;;;;;6.93;3.80;;;;;;;13.21;91.38;99921.69;5041200;28;20044;-54
2022/06/11 02:24:13;;;;;;;9.55;3.97;;;;;;;13.22;91.55;99926.00;5028486;28;20799;-56
2022/06/11 02:26:46;;;;;;;;;;;;;;;13.27;91.41;99924.22;5035888;28;20031;-55
2022/06/11 02:29:13;;;;;;;8.32;3.47;;;;;;;13.24;91.04;99927.38;5066719;28;19927;-55
2022/06/11 02:31:46;;;;;;;10.70;4.20;;;;;;;13.22;91.52;99936.75;5039478;28;20036;-55
2022/06/11 02:34:13;;;;;;;6.13;3.80;;;;;;;13.31;91.19;99938.84;5048120;28;20112;-53
2022/06/11 02:36:59;;;;;;;8.93;4.00;;;;;;;13.24;91.17;99931.94;5048494;28;20028;-55
2022/06/11 02:39:25;;;;;;;10.52;3.95;;;;;;;13.14;92.12;99946.03;5067098;28;20060;-55
2022/06/11 02:41:51;;;;;;;7.13;3.75;;;;;;;13.30;92.04;99944.47;5068287;28;20532;-55
2022/06/11 02:44:16;;;;;;;11.98;4.40;;;;;;;13.33;91.22;99944.00;5035062;28;20478;-55
2022/06/11 02:46:45;;;;;;;8.60;3.75;;;;;;;13.39;91.78;99943.00;5066861;28;20028;-55
2022/06/11 02:49:22;;;;;;;8.15;4.53;;;;;;;13.44;91.12;99951.19;5067558;28;20020;-55
2022/06/11 02:51:48;;;;;;;7.53;4.28;;;;;;;13.38;91.63;99947.59;5068555;28;20569;-55
2022/06/11 02:54:14;;;;;;;7.75;4.15;;;;;;;13.41;91.54;99954.38;5068389;28;20123;-55
2022/06/11 02:56:40;;;;;;;9.48;3.92;;;;;;;13.35;92.02;99958.00;5067893;28;20595;-55
2022/06/11 02:59:05;;;;;;;11.57;4.13;;;;;;;13.28;92.49;99970.81;5067800;28;20028;-54
2022/06/11 03:01:31;;;;;;;16.42;4.50;;;;;;;13.14;92.79;99963.00;5068106;28;20029;-54
2022/06/11 03:03:56;;;;;;;10.55;4.53;;;;;;;13.05;93.71;99961.75;5068191;28;20452;-55
2022/06/11 03:06:23;;;;;;;7.82;3.95;;;;;;;12.92;94.99;99967.44;5067197;28;20035;-55
2022/06/11 03:08:48;;;;;;;7.63;3.95;;;;;;;12.88;96.04;99960.88;5067250;28;20387;-55
2022/06/11 03:11:14;;;;;;;12.68;4.95;;;;;;;13.03;95.70;99961.19;5069129;28;20091;-55
2022/06/11 03:13:39;;;;;;;8.57;4.63;;;;;;;13.23;94.88;99959.91;5067233;28;20040;-55
2022/06/11 03:16:05;;;;;;;11.45;5.28;;;;;;;13.34;94.40;99967.16;5049174;28;20024;-55
2022/06/11 03:18:31;;;;;;;11.18;5.13;;;;;;;13.16;96.60;99960.91;5067368;28;20028;-55
2022/06/11 03:20:56;;;;;;;19.63;5.38;;;;;;;13.25;96.67;99969.38;5066609;28;20398;-54
2022/06/11 03:23:22;;;;;;;12.73;5.20;;;;;;;13.34;96.26;99961.78;5066413;28;20025;-55
2022/06/11 03:25:47;;;;;;;11.77;5.50;;;;;;;13.35;96.94;99964.22;5066882;28;20032;-55
2022/06/11 03:28:17;;;;;;;6.30;5.07;;;;;;;13.43;96.70;99964.88;5059086;28;20028;-55
2022/06/11 03:30:43;;;;;;;14.98;5.70;;;;;;;13.32;96.56;99961.19;5067691;28;20479;-55
2022/06/11 03:33:09;;;;;;;16.42;5.85;;;;;;;13.46;96.59;99959.84;5066762;28;20071;-55
2022/06/11 03:35:35;;;;;;;12.13;4.95;;;;;;;13.52;95.73;99963.41;5038126;28;20033;-55
2022/06/11 03:38:00;;;;;;;9.77;4.50;;;;;;;13.47;94.38;99956.06;5041730;28;20339;-55
2022/06/11 03:40:26;;;;;;;10.77;5.13;;;;;;;13.33;94.29;99960.16;5070658;28;20048;-54
2022/06/11 03:42:51;;;;;;;13.07;5.35;;;;;;;13.06;94.77;99960.72;5070434;28;20056;-55
2022/06/11 03:45:17;;;;;;;9.65;4.90;;;;;;;13.04;96.95;99962.81;5071358;28;20028;-54
2022/06/11 03:47:43;;;;;;;12.60;5.03;;;;;;;12.97;96.67;99962.16;5067799;28;20038;-55
2022/06/11 03:50:11;;;;;;;9.35;4.60;;;;;;;12.63;100.00;99961.19;5054797;28;20052;-55
2022/06/11 03:52:37;;;;;;;12.90;4.82;;;;;;;12.88;100.00;99968.94;5071622;28;20111;-55
2022/06/11 03:55:02;;;;;;;15.38;5.00;;;;;;;13.12;99.53;99975.88;5070660;28;20028;-54
2022/06/11 03:57:28;;;;;;;13.65;4.75;;;;;;;13.18;97.84;99974.13;5070598;28;20040;-55
2022/06/11 03:59:53;;;;;;;13.50;5.55;;;;;;;13.11;98.53;99970.75;5068580;28;20037;-56
2022/06/11 04:02:19;;;;;;;15.75;5.60;;;;;;;13.24;98.04;99965.06;5071607;28;20021;-55
2022/06/11 04:04:44;;;;;;;11.05;4.97;;;;;;;13.29;97.70;99980.53;5070951;28;20025;-53
2022/06/11 04:07:10;;;;;;;8.00;4.65;;;;;;;13.38;97.09;99981.78;5064376;28;20258;-55
2022/06/11 04:09:40;;;;;;;13.20;5.10;;;;;;;13.30;96.62;99980.28;5071466;28;20058;-55
2022/06/11 04:12:09;;;;;;;10.45;5.22;;;;;;;13.37;96.28;99982.81;5043658;28;20028;-55
2022/06/11 04:14:35;;;;;;;15.88;5.03;;;;;;;13.47;96.83;99987.56;5071136;28;20025;-56
2022/06/11 04:17:08;;;;;;;11.52;5.00;;;;;;;13.44;96.45;99978.09;5071271;28;20033;-56
2022/06/11 04:19:36;;;;;;;8.88;4.97;;;;;;;13.33;96.22;99987.06;5037387;28;20032;-55
2022/06/11 04:22:02;;;;;;;17.88;5.20;;;;;;;13.26;97.71;99989.06;5051793;28;20054;-55
2022/06/11 04:24:27;;;;;;;7.40;4.20;;;;;;;13.42;97.84;99995.56;5068208;28;20555;-55
2022/06/11 04:26:55;;;;;;;14.07;5.78;;;;;;;13.55;95.03;99990.69;5070956;28;20040;-56
2022/06/11 04:29:22;;;;;;;11.77;4.60;;;;;;;13.64;95.26;99992.97;5069876;28;20470;-54
2022/06/11 04:31:48;;;;;;;10.60;4.93;;;;;;;13.66;94.38;99988.19;5040921;28;20036;-56
2022/06/11 04:34:14;;;;;;;12.13;4.75;;;;;;;13.77;94.88;99987.25;5070492;28;20104;-55
2022/06/11 04:36:40;;;;;;;9.40;4.72;;;;;;;13.77;94.18;99987.25;5056518;28;20322;-55
2022/06/11 04:39:06;;;;;;;12.63;5.00;;;;;;;13.77;93.83;99993.47;5070298;28;20056;-55
2022/06/11 04:41:31;;;;;;;7.85;4.82;;;;;;;13.82;94.46;99995.44;5063204;28;20021;-55
2022/06/11 04:43:57;;;;;;;11.25;5.15;;;;;;;13.92;93.21;99997.47;5068758;28;20117;-55
2022/06/11 04:46:22;;;;;;;10.90;5.57;;;;;;;13.85;94.05;100008.41;5069895;28;20021;-55
2022/06/11 04:48:48;;;;;;;11.45;5.13;;;;;;;13.93;94.99;99999.13;5071719;28;20467;-55
2022/06/11 04:51:13;;;;;;;12.30;5.72;;;;;;;13.86;94.61;99998.47;5068499;28;20068;-55
2022/06/11 04:53:39;;;;;;;10.45;5.57;;;;;;;13.68;96.14;99997.66;5069311;28;20037;-55
2022/06/11 04:56:05;;;;;;;9.75;5.10;;;;;;;14.02;94.40;99998.44;5069346;28;20048;-54
2022/06/11 04:58:30;;;;;;;7.90;4.80;;;;;;;14.13;93.75;100002.13;5053412;28;20029;-55
2022/06/11 05:00:56;;;;;;;14.10;5.28;;;;;;;14.48;92.44;100011.78;5070813;28;20032;-55
2022/06/11 05:03:21;;;;;;;11.75;4.97;;;;;;;14.60;91.14;100014.38;5069360;28;20031;-55
2022/06/11 05:05:47;;;;;;;8.88;5.03;;;;;;;14.53;91.15;100005.66;5065187;28;20029;-56
2022/06/11 05:08:13;;;;;;;10.20;4.75;;;;;;;14.26;91.65;100002.84;5067247;28;20490;-55
2022/06/11 05:10:39;;;;;;;10.35;5.50;;;;;;;14.25;91.90;100007.41;5068460;28;20045;-55
2022/06/11 05:13:05;;;;;;;13.27;5.20;;;;;;;14.49;91.08;100015.28;5069340;28;20109;-54
2022/06/11 05:15:31;;;;;;;10.98;4.70;;;;;;;14.67;90.33;100012.31;5070154;28;20532;-54
2022/06/11 05:17:56;;;;;;;8.27;4.82;;;;;;;14.80;90.20;100014.66;5068534;28;20040;-54
2022/06/11 05:20:22;;;;;;;10.20;4.57;;;;;;;14.81;90.02;100008.19;5069838;28;20367;-55
2022/06/11 05:22:47;;;;;;;6.95;4.50;;;;;;;14.78;91.98;100008.69;5047147;28;20074;-56
2022/06/11 05:25:14;;;;;;;12.90;4.95;;;;;;;15.01;90.13;100012.19;5046987;28;20051;-54
2022/06/11 05:27:40;;;;;;;15.25;5.28;;;;;;;15.07;89.88;100021.97;5068793;28;20028;-55
2022/06/11 05:30:16;;;;;;;8.00;4.32;;;;;;;15.34;88.34;100026.59;5068688;28;20029;-55
2022/06/11 05:32:42;;;;;;;8.75;4.35;;;;;;;15.58;88.81;100022.53;5039484;28;20037;-55
2022/06/11 05:35:09;;;;;;;16.05;4.93;;;;;;;15.59;88.79;100029.53;5070336;28;20158;-55
2022/06/11 05:37:34;;;;;;;9.60;4.18;;;;;;;15.53;87.50;100020.59;5032840;28;20036;-56
2022/06/11 05:39:59;;;;;;;7.95;4.40;;;;;;;15.32;88.01;100024.97;5043991;28;20491;-55
2022/06/11 05:42:25;;;;;;;12.18;4.15;;;;;;;15.58;87.08;100017.13;5052090;28;20036;-55
2022/06/11 05:44:51;;;;;;;11.82;4.78;;;;;;;15.70;85.93;100025.91;5052337;28;20029;-55
2022/06/11 05:47:18;;;;;;;14.27;5.93;;;;;;;15.82;85.17;100024.91;5069024;28;20036;-55
2022/06/11 05:49:46;;;;;;;12.65;4.88;;;;;;;16.16;83.18;100018.16;5026531;28;20027;-55
2022/06/11 05:52:15;;;;;;;9.80;5.28;;;;;;;16.00;83.77;100012.88;5069664;28;20099;-56
2022/06/11 05:54:41;;;;;;;14.93;5.30;;;;;;;15.83;84.43;100013.03;5035241;28;20029;-55
2022/06/11 05:57:07;;;;;;;11.60;4.95;;;;;;;16.50;83.44;100015.13;5041018;28;20364;-55
2022/06/11 05:59:35;;;;;;;14.63;5.03;;;;;;;16.96;78.60;100011.84;5016501;28;20476;-55
2022/06/11 06:02:00;;;;;;;11.95;4.40;;;;;;;16.38;81.75;100018.03;5072864;28;20078;-55
2022/06/11 06:04:26;;;;;;;8.13;4.70;;;;;;;16.42;80.72;100010.19;5041148;28;20478;-55
2022/06/11 06:06:51;;;;;;;12.00;4.50;;;;;;;16.87;79.95;100021.53;5048140;28;20024;-55
2022/06/11 06:09:17;;;;;;;8.55;4.40;;;;;;;17.35;78.00;100023.06;5067084;28;20048;-56
2022/06/11 06:11:42;;;;;;;7.38;4.20;;;;;;;17.32;78.51;100020.84;5068724;28;20395;-56
2022/06/11 06:14:08;;;;;;;10.10;4.60;;;;;;;17.03;77.78;100010.50;5069491;28;20139;-55
2022/06/11 06:16:33;;;;;;;12.32;4.30;;;;;;;16.92;79.07;100016.13;5050250;28;20032;-55
2022/06/11 06:18:59;;;;;;;9.45;3.95;;;;;;;16.91;80.16;100028.88;5060913;28;20029;-56
2022/06/11 06:21:26;;;;;;;10.18;4.47;;;;;;;16.71;81.48;100026.03;5068057;28;20025;-56
2022/06/11 06:23:51;;;;;;;12.27;4.60;;;;;;;16.65;81.61;100029.78;5066784;28;20052;-56
2022/06/11 06:26:17;;;;;;;15.27;4.38;;;;;;;16.33;83.73;100025.31;5069193;28;20052;-55
2022/06/11 06:28:42;;;;;;;8.13;4.05;;;;;;;16.23;84.98;100030.66;5068283;28;20036;-56
2022/06/11 06:31:08;;;;;;;14.10;4.43;;;;;;;16.25;85.30;100032.00;5067812;28;20036;-55
2022/06/11 06:33:34;;;;;;;9.90;4.57;;;;;;;16.43;84.34;100038.09;5053561;28;20032;-55
2022/06/11 06:36:00;;;;;;;14.85;4.88;;;;;;;16.45;84.61;100038.59;5068634;28;20020;-55
2022/06/11 06:38:26;;;;;;;14.30;4.60;;;;;;;16.32;84.60;100034.47;5065972;28;20561;-56
2022/06/11 06:40:51;;;;;;;14.95;4.75;;;;;;;16.22;85.96;100037.91;5067701;28;20029;-56
2022/06/11 06:43:17;;;;;;;14.70;4.75;;;;;;;16.04;87.62;100024.81;5050258;28;20481;-56
2022/06/11 06:45:43;;;;;;;10.25;4.75;;;;;;;16.12;86.85;100029.75;5047713;28;20021;-56
2022/06/11 06:48:08;;;;;;;14.07;4.78;;;;;;;16.16;86.41;100023.56;5045140;28;20025;-55
2022/06/11 06:50:36;;;;;;;8.00;4.57;;;;;;;16.21;86.19;100014.66;5067395;28;20040;-56
2022/06/11 06:53:02;;;;;;;11.57;4.28;;;;;;;16.47;85.72;100029.16;5042736;28;20028;-54
2022/06/11 06:55:27;;;;;;;8.50;4.47;;;;;;;16.83;84.38;100028.56;5067834;28;20131;-55
2022/06/11 06:57:53;;;;;;;14.68;4.88;;;;;;;16.92;84.88;100035.09;5069287;28;20033;-54
2022/06/11 07:00:19;;;;;;;10.57;4.30;;;;;;;17.25;84.06;100034.69;5067570;28;20029;-55
2022/06/11 07:02:45;;;;;;;13.70;4.65;;;;;;;17.30;83.72;100039.31;5029785;28;20046;-54
2022/06/11 07:05:12;;;;;;;8.27;4.40;;;;;;;17.56;81.87;100031.22;5065453;28;20024;-55
2022/06/11 07:07:38;;;;;;;15.18;4.50;;;;;;;17.62;82.27;100038.25;5065581;28;20025;-54
2022/06/11 07:10:03;;;;;;;11.05;4.72;;;;;;;17.76;81.70;100039.34;5067314;28;20078;-55
2022/06/11 07:12:29;;;;;;;15.30;5.03;;;;;;;17.64;82.18;100034.19;5059384;28;20446;-54
2022/06/11 07:14:54;;;;;;;12.75;5.20;;;;;;;17.55;83.02;100041.25;5067469;28;20098;-55
2022/06/11 07:17:20;;;;;;;11.30;4.90;;;;;;;17.80;82.72;100045.09;5048345;28;20474;-55
2022/06/11 07:19:50;;;;;;;15.60;5.63;;;;;;;17.75;81.85;100037.75;5066010;28;20025;-55
2022/06/11 07:22:30;;;;;;;9.57;5.35;;;;;;;17.50;82.85;100038.53;5067318;28;20027;-55
2022/06/11 07:24:56;;;;;;;16.25;5.35;;;;;;;17.71;82.39;100031.22;5065354;28;20029;-54
2022/06/11 07:27:24;;;;;;;12.68;5.10;;;;;;;17.65;82.80;100033.13;5067917;28;20095;-53
2022/06/11 07:30:03;;;;;;;12.63;5.18;;;;;;;18.60;79.09;100037.13;5067506;28;20029;-54
2022/06/11 07:32:29;;;;;;;7.80;4.47;;;;;;;18.74;78.03;100046.31;5067791;28;20029;-55
2022/06/11 07:34:55;;;;;;;13.68;4.97;;;;;;;19.15;75.83;100048.09;5066917;28;20046;-55
2022/06/11 07:37:20;;;;;;;11.88;4.18;;;;;;;19.32;76.41;100043.13;5051202;28;20024;-54
2022/06/11 07:39:46;;;;;;;8.65;4.22;;;;;;;20.02;73.39;100050.28;5048224;28;20032;-54
2022/06/11 07:42:12;;;;;;;13.65;4.78;;;;;;;20.52;70.93;100039.16;5067070;28;20043;-55
2022/06/11 07:44:38;;;;;;;11.55;4.45;;;;;;;20.50;70.33;100039.47;5069567;28;20043;-54
2022/06/11 07:47:04;;;;;;;12.80;3.70;;;;;;;20.95;67.79;100044.72;5067742;28;20423;-55
2022/06/11 07:49:29;;;;;;;7.38;3.15;;;;;;;21.75;65.58;100041.97;5066484;28;20029;-55
2022/06/11 07:51:55;;;;;;;11.10;3.20;;;;;;;22.55;61.62;100042.00;5065008;28;20397;-55
2022/06/11 07:54:20;;;;;;;9.02;3.30;;;;;;;24.78;56.97;100038.19;5061626;28;20036;-55
2022/06/11 07:56:46;;;;;;;8.77;3.58;;;;;;;23.55;58.38;100042.09;5061139;28;20039;-55
2022/06/11 07:59:11;;;;;;;8.40;3.30;;;;;;;20.87;66.15;100038.81;5066835;28;20081;-55
2022/06/11 08:01:37;;;;;;;8.63;3.15;;;;;;;21.23;66.00;100048.44;5047613;28;20063;-55
2022/06/11 08:04:02;;;;;;;9.48;3.00;;;;;;;21.17;66.71;100042.25;5065400;28;20024;-55
2022/06/11 08:06:28;;;;;;;6.20;2.90;;;;;;;23.45;61.22;100034.91;5064811;28;20032;-55
2022/06/11 08:08:53;;;;;;;9.15;3.45;;;;;;;23.47;59.14;100040.91;5061828;28;20036;-56
2022/06/11 08:11:19;;;;;;;11.02;2.97;;;;;;;22.15;61.91;100045.13;5064152;28;20029;-55
2022/06/11 08:13:46;;;;;;;9.90;3.00;;;;;;;21.36;66.18;100039.50;5066284;28;20056;-54
2022/06/11 08:16:12;;;;;;;12.90;4.75;;;;;;;22.26;63.11;100034.84;5065914;28;20026;-55
2022/06/11 08:18:37;;;;;;;12.27;4.00;;;;;;;23.22;60.14;100041.47;5040629;28;20185;-55
2022/06/11 08:21:03;;;;;;;8.50;2.97;;;;;;;22.81;60.68;100039.56;5063843;28;20047;-55
2022/06/11 08:23:29;;;;;;;8.05;3.45;;;;;;;23.55;59.81;100039.34;5069659;28;20479;-55
2022/06/11 08:25:54;;;;;;;10.23;2.60;;;;;;;23.81;58.31;100044.25;5068857;28;20024;-55
2022/06/11 08:28:20;;;;;;;8.20;2.60;;;;;;;23.24;59.61;100044.72;5070087;28;20380;-55
2022/06/11 08:30:45;;;;;;;8.60;2.63;;;;;;;23.06;59.76;100040.97;5068382;28;20021;-56
2022/06/11 08:33:11;;;;;;;7.78;2.35;;;;;;;21.87;62.44;100049.69;5067524;28;20119;-55
2022/06/11 08:35:36;;;;;;;7.10;2.50;;;;;;;22.30;61.69;100044.06;5069995;28;20341;-56
2022/06/11 08:38:03;;;;;;;7.60;2.47;;;;;;;22.35;60.41;100048.63;5068729;28;20097;-55
2022/06/11 08:40:45;;;;;;;4.80;2.30;;;;;;;22.10;60.56;100042.47;5058493;28;20044;-56
2022/06/11 08:43:21;;;;;;;6.80;2.50;;;;;;;20.94;63.13;100043.06;5039671;28;20021;-55
2022/06/11 08:46:10;;;;;;;7.60;3.10;;;;;;;22.93;59.97;100048.06;5047527;28;20064;-55
2022/06/11 08:49:02;;;;;;;11.65;3.00;;;;;;;22.83;60.36;100037.31;5069603;28;20044;-54
2022/06/11 08:51:39;;;;;;;17.08;5.55;;;;;;;22.51;61.86;100030.84;5069187;28;20423;-54
2022/06/11 08:54:10;;;;;;;7.05;2.63;;;;;;;22.52;61.75;100037.94;5068694;28;20074;-54
2022/06/11 08:56:40;;;;;;;9.63;2.90;;;;;;;22.70;62.46;100033.50;5068635;28;20150;-57
2022/06/11 08:59:19;;;;;;;11.52;3.30;;;;;;;25.19;54.01;100037.81;5063818;28;20024;-56
2022/06/11 09:02:04;;;;;;;11.60;3.00;;;;;;;24.60;55.19;100032.63;5068560;28;20032;-57
2022/06/11 09:04:50;;;;;;;5.60;2.13;;;;;;;24.54;51.21;100031.16;5053271;28;20064;-54
2022/06/11 09:07:46;;;;;;;6.18;2.58;;;;;;;22.49;57.38;100030.34;5065323;28;20036;-54
2022/06/11 09:10:35;;;;;;;7.68;2.42;;;;;;;23.33;53.15;100029.19;5053069;28;20036;-56
2022/06/11 09:13:38;;;;;;;4.70;2.30;;;;;;;24.06;52.81;100023.63;5060276;28;20040;-53
2022/06/11 09:16:28;;;;;;;8.05;2.65;;;;;;;26.20;48.07;100010.94;5066895;28;20039;-54
2022/06/11 09:19:22;;;;;;;5.55;2.00;;;;;;;24.15;54.13;100010.00;5063312;28;20029;-54
2022/06/11 09:22:15;;;;;;;4.25;2.28;;;;;;;25.86;48.76;100003.63;5068733;28;20037;-54
2022/06/11 09:25:04;;;;;;;5.38;2.05;;;;;;;25.86;48.67;100011.03;5062584;28;20419;-56
2022/06/11 09:27:50;;;;;;;4.90;2.20;;;;;;;24.83;50.14;100003.19;5031859;28;20111;-57
2022/06/11 09:30:21;;;;;;;9.57;2.33;;;;;;;22.32;57.76;100011.03;5046735;28;20036;-56
2022/06/11 09:32:51;;;;;;;7.00;2.25;;;;;;;23.51;55.53;100002.78;5032024;28;20037;-56
2022/06/11 09:35:19;;;;;;;5.57;2.25;;;;;;;24.35;54.14;100005.91;5069359;28;20032;-56
2022/06/11 09:37:58;;;;;;;5.90;2.30;;;;;;;23.99;54.23;100013.13;5062853;28;20099;-55
2022/06/11 09:40:32;;;;;;;6.63;2.30;;;;;;;25.69;49.62;100006.38;5049933;28;20171;-56
2022/06/11 09:43:03;;;;;;;7.15;2.10;;;;;;;25.27;50.68;100009.59;5038377;28;20051;-55
2022/06/11 09:46:04;;;;;;;6.97;2.35;;;;;;;24.63;51.74;100010.06;5066637;28;20032;-55
2022/06/11 09:48:54;;;;;;;5.57;1.98;;;;;;;24.03;53.77;100005.09;4987477;28;20634;-54
2022/06/11 09:51:38;;;;;;;7.80;2.47;;;;;;;23.27;57.50;100013.22;5043547;28;20036;-55
2022/06/11 09:54:25;;;;;;;5.68;2.20;;;;;;;24.53;53.63;100004.88;5065065;28;20466;-54
2022/06/11 09:56:56;;;;;;;6.45;2.08;;;;;;;26.42;49.23;100001.66;5065497;28;20517;-55
2022/06/11 09:59:43;;;;;;;9.10;2.50;;;;;;;27.44;47.00;99998.97;5067229;28;20068;-54
2022/06/11 10:05:08;;;;;;;5.25;2.10;;;;;;;24.78;51.37;100008.03;5047415;28;20040;-55
2022/06/11 10:07:37;;;;;;;6.60;2.00;;;;;;;26.56;48.22;100001.47;5040609;28;20040;-55
2022/06/11 10:10:06;;;;;;;6.05;2.05;;;;;;;24.27;53.57;100002.81;5044269;28;20138;-54
2022/06/11 10:12:55;;;;;;;5.85;2.25;;;;;;;25.16;50.78;100006.38;5044769;28;20551;-54
2022/06/11 10:15:29;;;;;;;10.93;2.47;;;;;;;25.37;51.41;100005.72;5046904;28;20530;-54
2022/06/11 10:18:42;;;;;;;9.23;2.80;;;;;;;26.79;48.70;99996.50;5048436;28;20513;-55
2022/06/11 10:21:14;;;;;;;5.65;2.10;;;;;;;26.80;46.80;100000.84;4960032;28;20049;-54
2022/06/11 10:23:43;;;;;;;7.20;2.25;;;;;;;25.92;49.23;99999.56;4923744;28;20100;-55
2022/06/11 10:26:18;;;;;;;6.18;2.10;;;;;;;27.08;46.18;99990.16;4990214;28;20471;-55
2022/06/11 10:28:49;;;;;;;9.65;2.53;;;;;;;26.87;47.92;99984.63;5040620;28;20047;-55
2022/06/11 10:31:18;;;;;;;6.75;2.10;;;;;;;27.66;46.75;99984.06;5064798;28;20052;-55
2022/06/11 10:33:46;;;;;;;;;;;;;;;24.31;52.51;99987.38;5031848;28;20025;-55
2022/06/11 10:36:19;;;;;;;5.85;2.13;;;;;;;22.88;56.24;99982.56;5049135;28;20023;-54
2022/06/11 10:39:09;;;;;;;7.05;2.30;;;;;;;24.90;52.77;99986.28;5064778;28;20395;-55
2022/06/11 10:41:41;;;;;;;11.65;5.85;;;;;;;25.80;49.66;99980.97;5065626;28;20032;-55
2022/06/11 10:44:24;;;;;;;9.57;2.38;;;;;;;25.23;51.61;99983.91;5065002;28;20059;-54
2022/06/11 10:46:50;;;;;;;4.97;2.25;;;;;;;25.42;50.46;99986.34;5061903;28;20037;-55
2022/06/11 10:49:17;;;;;;;5.57;2.25;;;;;;;26.01;48.78;99980.31;5044381;28;20378;-55
2022/06/11 10:52:15;;;;;;;7.13;2.10;;;;;;;25.31;50.68;99982.31;5065328;28;20032;-55
2022/06/11 10:54:40;;;;;;;5.35;2.10;;;;;;;24.51;51.40;99982.47;5051340;28;20071;-55
2022/06/11 10:57:12;;;;;;;3.28;2.03;;;;;;;24.49;52.66;99985.53;5067585;28;20284;-55
2022/06/11 10:59:42;;;;;;;7.45;2.08;;;;;;;24.61;51.93;99973.13;5065062;28;20033;-55
2022/06/11 11:02:25;;;;;;;7.22;2.10;;;;;;;24.37;52.85;99979.00;5047773;28;20036;-55
2022/06/11 11:05:04;;;;;;;7.43;2.20;;;;;;;24.54;52.92;99973.63;5045796;28;20029;-54
2022/06/11 11:07:55;;;;;;;5.72;2.20;;;;;;;25.78;49.87;99969.50;5044812;28;20039;-55
2022/06/11 11:10:35;;;;;;;4.28;1.88;;;;;;;25.79;50.29;99962.91;5060904;28;20484;-55
2022/06/11 11:13:15;;;;;;;6.15;2.30;;;;;;;25.25;52.11;99964.41;5061770;28;20029;-54
2022/06/11 11:15:44;;;;;;;6.68;2.40;;;;;;;25.27;52.70;99956.66;5065648;28;20039;-54
2022/06/11 11:18:20;;;;;;;5.90;2.22;;;;;;;24.82;52.45;99952.25;5067884;28;20020;-55
2022/06/11 11:20:47;;;;;;;8.43;2.47;;;;;;;25.27;53.62;99962.16;5048543;28;20111;-56
2022/06/11 11:23:20;;;;;;;10.00;2.40;;;;;;;24.94;54.12;99954.38;5041807;28;20060;-56
2022/06/11 11:25:55;;;;;;;8.57;2.33;;;;;;;25.43;52.32;99954.22;5063041;28;20490;-55
2022/06/11 11:28:24;;;;;;;9.02;2.53;;;;;;;25.74;51.21;99957.56;5047943;28;20021;-54
2022/06/11 11:31:08;;;;;;;9.13;2.50;;;;;;;26.41;50.30;99953.34;5065012;28;20023;-55
2022/06/11 11:33:38;;;;;;;9.70;2.45;;;;;;;26.73;47.03;99953.81;5027804;28;20045;-55
2022/06/11 11:36:24;;;;;;;7.63;2.35;;;;;;;26.37;47.68;99944.13;5046128;28;20146;-54
2022/06/11 11:39:08;;;;;;;9.63;2.30;;;;;;;26.06;47.83;99949.94;5062211;28;20463;-55
2022/06/11 11:41:34;;;;;;;6.25;2.30;;;;;;;26.47;48.83;99941.00;5063784;28;20441;-55
2022/06/11 11:44:00;;;;;;;5.53;2.03;;;;;;;25.79;49.01;99942.88;5043650;28;20374;-55
2022/06/11 11:46:26;;;;;;;5.80;2.05;;;;;;;25.55;50.89;99941.47;5062294;28;20045;-55
2022/06/11 11:48:56;;;;;;;7.93;2.22;;;;;;;25.81;48.76;99935.13;5065638;28;20082;-54